createdAt,value
2019-03-22T00:00:27.999Z,12.68
2019-03-22T00:05:30.873Z,12.15
2019-03-22T00:10:33.668Z,13.05
2019-03-22T00:15:36.348Z,12.63
2019-03-22T00:20:38.975Z,13.45
2019-03-22T00:25:41.580Z,12.30
2019-03-22T00:30:44.216Z,11.93
2019-03-22T00:35:46.876Z,11.57
2019-03-22T00:40:49.668Z,11.68
2019-03-22T00:45:52.358Z,11.28
2019-03-22T00:50:55.067Z,11.73
2019-03-22T00:55:57.666Z,11.55
2019-03-22T01:01:00.665Z,11.40
2019-03-22T01:06:03.420Z,12.55
2019-03-22T01:11:06.100Z,11.88
2019-03-22T01:16:08.987Z,12.82
2019-03-22T01:21:11.821Z,12.18
2019-03-22T01:26:14.525Z,12.47
2019-03-22T01:31:17.211Z,11.93
2019-03-22T01:36:19.808Z,12.00
2019-03-22T01:41:22.462Z,12.10
2019-03-22T01:46:25.140Z,11.18
2019-03-22T01:51:27.823Z,10.58
2019-03-22T01:56:30.771Z,11.43
2019-03-22T02:01:33.709Z,11.65
2019-03-22T02:06:36.443Z,11.08
2019-03-22T02:11:39.025Z,11.60
2019-03-22T02:16:41.668Z,11.20
2019-03-22T02:21:44.504Z,12.43
2019-03-22T02:26:47.138Z,11.35
2019-03-22T02:31:49.880Z,11.08
2019-03-22T02:36:52.473Z,11.48
2019-03-22T02:41:55.061Z,10.50
2019-03-22T02:46:57.844Z,11.40
2019-03-22T02:52:00.420Z,10.68
2019-03-22T02:57:03.217Z,10.35
2019-03-22T03:02:06.148Z,9.48
2019-03-22T03:07:08.769Z,9.83
2019-03-22T03:12:11.383Z,10.08
2019-03-22T03:17:14.009Z,10.00
2019-03-22T03:22:16.635Z,9.38
2019-03-22T03:27:19.202Z,9.68
2019-03-22T03:32:21.794Z,9.88
2019-03-22T03:37:24.837Z,9.55
2019-03-22T03:42:27.437Z,10.35
2019-03-22T03:47:30.067Z,10.50
2019-03-22T03:52:32.633Z,10.63
2019-03-22T03:57:35.416Z,10.68
2019-03-22T04:02:38.522Z,9.73
2019-03-22T04:07:41.184Z,10.23
2019-03-22T04:12:44.136Z,10.80
2019-03-22T04:17:46.716Z,11.33
2019-03-22T04:22:50.856Z,10.70
2019-03-22T04:27:53.449Z,11.05
2019-03-22T04:32:56.109Z,11.18
2019-03-22T04:37:58.730Z,11.40
2019-03-22T04:43:01.366Z,12.45
2019-03-22T04:48:16.652Z,12.23
2019-03-22T04:53:22.316Z,11.18
2019-03-22T04:58:26.783Z,11.85
2019-03-22T05:03:31.057Z,12.05
2019-03-22T05:08:37.380Z,12.07
2019-03-22T05:13:43.073Z,11.57
2019-03-22T05:18:48.266Z,11.15
2019-03-22T05:23:52.867Z,10.70
2019-03-22T05:28:55.882Z,10.63
2019-03-22T05:33:58.548Z,10.28
2019-03-22T05:39:01.207Z,10.38
2019-03-22T05:44:03.819Z,10.05
2019-03-22T05:49:06.742Z,10.30
2019-03-22T05:54:09.931Z,10.80
2019-03-22T05:59:12.684Z,10.03
2019-03-22T06:04:15.718Z,9.95
2019-03-22T06:09:18.542Z,10.35
2019-03-22T06:14:21.204Z,10.85
2019-03-22T06:19:23.867Z,10.35
2019-03-22T06:24:26.498Z,10.88
2019-03-22T06:29:29.158Z,10.63
2019-03-22T06:34:31.746Z,11.33
2019-03-22T06:39:34.373Z,11.12
2019-03-22T06:44:37.029Z,11.63
2019-03-22T06:49:39.743Z,11.38
2019-03-22T06:54:42.398Z,11.45
2019-03-22T06:59:45.048Z,11.35
2019-03-22T07:04:48.852Z,11.75
2019-03-22T07:09:51.469Z,12.30
2019-03-22T07:14:54.196Z,13.00
2019-03-22T07:19:56.793Z,12.45
2019-03-22T07:24:59.462Z,11.88
2019-03-22T07:30:02.124Z,12.82
2019-03-22T07:35:04.877Z,11.78
2019-03-22T07:40:07.807Z,12.28
2019-03-22T07:45:10.600Z,11.97
2019-03-22T07:50:13.570Z,12.18
2019-03-22T07:55:16.216Z,12.65
2019-03-22T08:00:30.297Z,12.13
2019-03-22T08:05:23.557Z,11.83
2019-03-22T08:10:26.131Z,11.05
2019-03-22T08:15:32.676Z,11.43
2019-03-22T08:20:35.296Z,10.68
2019-03-22T08:25:37.983Z,11.15
2019-03-22T08:30:43.258Z,10.05
2019-03-22T08:35:45.568Z,10.20
2019-03-22T08:40:48.172Z,10.38
2019-03-22T08:45:50.774Z,9.95
2019-03-22T08:50:53.513Z,11.60
2019-03-22T08:55:56.075Z,9.53
2019-03-22T09:00:59.092Z,11.10
2019-03-22T09:06:01.871Z,10.90
2019-03-22T09:11:04.607Z,10.18
2019-03-22T09:16:07.283Z,8.70
2019-03-22T09:21:10.227Z,9.63
2019-03-22T09:26:12.883Z,8.38
2019-03-22T09:31:15.893Z,7.83
2019-03-22T09:36:18.727Z,7.92
2019-03-22T09:41:21.495Z,8.40
2019-03-22T09:46:24.093Z,8.78
2019-03-22T09:51:26.744Z,7.50
2019-03-22T09:56:29.456Z,8.40
2019-03-22T10:01:32.123Z,7.78
2019-03-22T10:06:34.746Z,7.35
2019-03-22T10:11:37.503Z,8.00
2019-03-22T10:16:40.126Z,7.60
2019-03-22T10:21:42.783Z,7.62
2019-03-22T10:26:45.642Z,7.40
2019-03-22T10:31:48.539Z,7.33
2019-03-22T10:36:51.217Z,7.42
2019-03-22T10:41:53.960Z,7.53
2019-03-22T10:46:56.747Z,7.62
2019-03-22T10:51:59.444Z,6.87
2019-03-22T10:57:02.120Z,7.85
2019-03-22T11:02:07.658Z,7.37
2019-03-22T11:07:09.346Z,7.25
2019-03-22T11:12:12.582Z,7.78
2019-03-22T11:17:15.321Z,7.83
2019-03-22T11:22:17.927Z,8.20
2019-03-22T11:27:22.072Z,8.25
2019-03-22T11:32:24.821Z,8.28
2019-03-22T11:37:27.695Z,7.80
2019-03-22T11:42:30.420Z,7.00
2019-03-22T11:47:33.352Z,6.55
2019-03-22T11:52:36.044Z,7.42
2019-03-22T11:57:38.816Z,6.58
2019-03-22T12:02:41.467Z,6.47
2019-03-22T12:07:44.189Z,7.17
2019-03-22T12:12:47.801Z,7.72
2019-03-22T12:17:50.638Z,8.48
2019-03-22T12:22:53.435Z,8.05
2019-03-22T12:27:56.131Z,8.85
2019-03-22T12:32:59.070Z,7.28
2019-03-22T12:38:01.713Z,7.20
2019-03-22T12:43:04.802Z,7.12
2019-03-22T12:48:07.547Z,6.33
2019-03-22T12:53:10.313Z,6.67
2019-03-22T12:58:12.949Z,6.58
2019-03-22T13:03:15.573Z,6.97
2019-03-22T13:08:18.236Z,6.80
2019-03-22T13:13:21.165Z,6.80
2019-03-22T13:18:23.843Z,6.53
2019-03-22T13:23:26.745Z,6.50
2019-03-22T13:28:29.698Z,6.42
2019-03-22T13:33:32.390Z,7.15
2019-03-22T13:38:35.046Z,7.75
2019-03-22T13:43:37.819Z,5.80
2019-03-22T13:48:40.476Z,5.85
2019-03-22T13:53:43.257Z,5.70
2019-03-22T13:58:45.918Z,6.25
2019-03-22T14:03:48.553Z,6.80
2019-03-22T14:08:51.209Z,5.50
2019-03-22T14:13:53.827Z,5.60
2019-03-22T14:18:56.380Z,5.10
2019-03-22T14:23:59.123Z,4.92
2019-03-22T14:29:01.794Z,4.53
2019-03-22T14:34:04.431Z,3.58
2019-03-22T14:39:07.748Z,4.20
2019-03-22T14:44:10.400Z,3.70
2019-03-22T14:49:13.150Z,3.55
2019-03-22T14:54:15.767Z,3.92
2019-03-22T14:59:18.489Z,4.05
2019-03-22T15:04:21.161Z,4.55
2019-03-22T15:09:23.767Z,3.72
2019-03-22T15:14:41.127Z,3.70
2019-03-22T15:20:01.778Z,3.30
2019-03-22T15:25:36.859Z,3.27
2019-03-22T15:30:58.060Z,3.55
2019-03-22T15:36:18.558Z,3.55
2019-03-22T15:41:21.275Z,3.30
2019-03-22T15:46:23.946Z,3.40
2019-03-22T15:51:26.853Z,2.17
2019-03-22T15:56:29.579Z,2.15
2019-03-22T16:01:32.347Z,2.42
2019-03-22T16:06:34.958Z,2.20
2019-03-22T16:11:37.567Z,2.30
2019-03-22T16:16:42.011Z,2.55
2019-03-22T16:21:44.642Z,2.45
2019-03-22T16:26:47.371Z,2.15
2019-03-22T16:31:50.328Z,2.70
2019-03-22T16:36:53.074Z,2.85
2019-03-22T16:41:55.723Z,2.98
2019-03-22T16:46:58.458Z,2.60
2019-03-22T16:52:01.245Z,2.87
2019-03-22T16:57:03.902Z,3.20
2019-03-22T17:02:06.558Z,3.02
2019-03-22T17:07:09.290Z,3.50
2019-03-22T17:12:12.036Z,3.12
2019-03-22T17:17:14.692Z,4.15
2019-03-22T17:22:17.339Z,3.22
2019-03-22T17:27:19.931Z,3.52
2019-03-22T17:32:22.794Z,3.33
2019-03-22T17:37:25.490Z,3.50
2019-03-22T17:42:28.209Z,3.40
2019-03-22T17:47:30.856Z,3.15
2019-03-22T17:52:34.668Z,3.30
2019-03-22T17:57:37.364Z,4.45
2019-03-22T18:02:39.977Z,4.08
2019-03-22T18:07:42.914Z,3.90
2019-03-22T18:12:45.539Z,3.92
2019-03-22T18:17:48.121Z,4.10
2019-03-22T18:22:50.969Z,4.15
2019-03-22T18:27:53.757Z,4.67
2019-03-22T18:32:56.520Z,4.17
2019-03-22T18:37:59.384Z,4.80
2019-03-22T18:43:02.112Z,5.12
2019-03-22T18:48:04.886Z,5.08
2019-03-22T18:53:07.789Z,4.92
2019-03-22T18:58:10.659Z,5.60
2019-03-22T19:03:13.318Z,5.17
2019-03-22T19:08:15.942Z,5.37
2019-03-22T19:13:18.768Z,5.97
2019-03-22T19:18:21.521Z,6.30
2019-03-22T19:23:24.180Z,6.97
2019-03-22T19:28:26.774Z,6.62
2019-03-22T19:33:29.892Z,6.22
2019-03-22T19:38:32.500Z,7.83
2019-03-22T19:43:35.178Z,6.75
2019-03-22T19:48:37.802Z,7.05
2019-03-22T19:53:40.490Z,7.60
2019-03-22T19:58:43.289Z,7.40
2019-03-22T20:03:46.292Z,7.70
2019-03-22T20:08:48.863Z,6.83
2019-03-22T20:13:52.540Z,10.10
2019-03-22T20:18:55.187Z,8.70
2019-03-22T20:23:57.832Z,9.58
2019-03-22T20:29:00.595Z,9.95
2019-03-22T20:34:03.216Z,9.73
2019-03-22T20:39:06.406Z,10.40
2019-03-22T20:44:09.041Z,10.98
2019-03-22T20:49:11.921Z,10.63
2019-03-22T20:54:14.581Z,12.45
2019-03-22T20:59:17.250Z,11.95
2019-03-22T21:04:22.009Z,10.70
2019-03-22T21:09:24.728Z,10.03
2019-03-22T21:14:27.541Z,11.40
2019-03-22T21:19:30.354Z,10.82
2019-03-22T21:24:33.033Z,10.72
2019-03-22T21:29:43.652Z,10.85
2019-03-22T21:34:40.278Z,11.43
2019-03-22T21:39:42.944Z,11.10
2019-03-22T21:44:45.619Z,10.38
2019-03-22T21:49:48.300Z,10.95
2019-03-22T21:54:51.077Z,11.53
2019-03-22T21:59:53.699Z,11.08
2019-03-22T22:04:56.733Z,13.45
2019-03-22T22:09:59.368Z,10.85
2019-03-22T22:15:01.980Z,11.45
2019-03-22T22:20:04.846Z,10.98
2019-03-22T22:25:07.850Z,10.80
2019-03-22T22:30:10.736Z,10.78
2019-03-22T22:35:13.362Z,10.55
2019-03-22T22:40:16.081Z,10.60
2019-03-22T22:45:19.219Z,11.22
2019-03-22T22:50:22.353Z,10.38
2019-03-22T22:55:25.122Z,9.60
2019-03-22T23:00:28.440Z,9.80
2019-03-22T23:05:31.055Z,9.58
2019-03-22T23:10:33.741Z,8.88
2019-03-22T23:15:36.454Z,9.13
2019-03-22T23:20:39.111Z,9.38
2019-03-22T23:25:41.671Z,9.53
2019-03-22T23:30:44.319Z,8.55
2019-03-22T23:35:46.956Z,9.13
2019-03-22T23:40:49.629Z,8.75
2019-03-22T23:45:52.351Z,7.97
2019-03-22T23:50:54.951Z,9.85
2019-03-22T23:55:57.865Z,8.90
